Adlington, United Kingdom
Current Conditions -  °F | °C
As of 1:50 AM on Tuesday 21 Oct 2014 (Local Time) from EGGP Reporting Station
Broken Clouds Broken Clouds  
Wind Chill: 55°   Ceiling: 3000
Heat Index: 55°   Visibility: 6mi
Dew Point: 52°   Wind: 12mph
Humidity: 88%   Direction: 180°S
Pressure: 29.56"   Gusts: NA
Location:  53.61°N, 2.61°W
Report Text: EGGP 210050Z 18010KT 130V210 9999 FEW025 BKN030 13/11 Q1001
Loading
Personal Weather Stations






























Interactive Weather Map
Tropical Storm Tracking
New forecast layout! Learn more

10-Day Weather Forecast

Advertisements
Track Severe Weather on mobile